createdAt,value
2023-04-01T00:00:12.157Z,78.5645
2023-04-01T00:01:12.930Z,78.5782
2023-04-01T00:02:13.480Z,78.6686
2023-04-01T00:03:13.757Z,78.4394
2023-04-01T00:04:14.574Z,78.5605
2023-04-01T00:05:15.594Z,78.5067
2023-04-01T00:06:15.806Z,78.3658
2023-04-01T00:07:16.426Z,78.5219
2023-04-01T00:08:16.945Z,78.4308
2023-04-01T00:09:18.152Z,78.3894
2023-04-01T00:10:19.695Z,78.4812
2023-04-01T00:12:20.898Z,78.6161
2023-04-01T00:13:21.133Z,78.8268
2023-04-01T00:14:21.248Z,78.9666
2023-04-01T00:15:21.329Z,78.8597
2023-04-01T00:16:24.907Z,78.8165
2023-04-01T00:17:25.897Z,78.5891
2023-04-01T00:18:26.696Z,78.2847
2023-04-01T00:19:27.461Z,78.3353
2023-04-01T00:20:28.258Z,78.2017
2023-04-01T00:21:28.868Z,78.2380
2023-04-01T00:22:29.635Z,78.3408
2023-04-01T00:23:30.374Z,78.3998
2023-04-01T00:24:31.047Z,78.4833
2023-04-01T00:25:32.099Z,78.0729
2023-04-01T00:26:33.124Z,78.5467
2023-04-01T00:27:33.682Z,78.4800
2023-04-01T00:28:34.548Z,78.6058
2023-04-01T00:29:35.352Z,78.9248
2023-04-01T00:30:36.104Z,78.6553
2023-04-01T00:31:37.143Z,78.7028
2023-04-01T00:32:37.951Z,78.7351
2023-04-01T00:33:38.972Z,79.0571
2023-04-01T00:34:39.962Z,78.9333
2023-04-01T00:35:40.863Z,78.8469
2023-04-01T00:36:41.869Z,78.6722
2023-04-01T00:37:42.734Z,78.6877
2023-04-01T00:38:43.394Z,78.7720
2023-04-01T00:39:44.093Z,78.7690
2023-04-01T00:40:44.743Z,78.6545
2023-04-01T00:41:45.538Z,78.2733
2023-04-01T00:42:46.340Z,78.2193
2023-04-01T00:43:46.951Z,77.7601
2023-04-01T00:44:47.715Z,77.9538
2023-04-01T00:45:48.529Z,78.0408
2023-04-01T00:46:49.238Z,78.0218
2023-04-01T00:47:50.586Z,78.0159
2023-04-01T00:48:51.387Z,77.6124
2023-04-01T00:49:52.250Z,77.2635
2023-04-01T00:50:53.072Z,77.4980
2023-04-01T00:51:53.780Z,77.4261
2023-04-01T00:52:54.623Z,77.5133
2023-04-01T00:53:55.522Z,77.6650
2023-04-01T00:54:56.079Z,77.6637
2023-04-01T00:55:56.854Z,77.5187
2023-04-01T00:56:57.656Z,77.5434
2023-04-01T00:57:58.867Z,77.9225
2023-04-01T00:58:59.752Z,77.9798
2023-04-01T01:00:00.493Z,77.8021
2023-04-01T01:01:01.539Z,77.7736
2023-04-01T01:02:02.929Z,78.1341
2023-04-01T01:03:04.075Z,78.2539
2023-04-01T01:04:05.045Z,78.3981
2023-04-01T01:05:05.665Z,78.3951
2023-04-01T01:06:06.303Z,78.4174
2023-04-01T01:07:07.214Z,78.2145
2023-04-01T01:08:07.977Z,78.2132
2023-04-01T01:09:08.825Z,77.9313
2023-04-01T01:10:09.719Z,78.1930
2023-04-01T01:11:11.141Z,78.1797
2023-04-01T01:12:10.529Z,78.4653
2023-04-01T01:13:11.244Z,78.6625
2023-04-01T01:14:12.095Z,78.7031
2023-04-01T01:15:13.161Z,78.8512
2023-04-01T01:16:14.481Z,78.7082
2023-04-01T01:17:15.598Z,79.0583
2023-04-01T01:18:15.595Z,79.2760
2023-04-01T01:19:16.303Z,79.3136
2023-04-01T01:20:26.177Z,79.2920
2023-04-01T01:21:21.211Z,79.4037
2023-04-01T01:22:22.140Z,79.5876
2023-04-01T01:23:22.977Z,79.8790
2023-04-01T01:24:23.714Z,79.8639
2023-04-01T01:25:24.670Z,79.8782
2023-04-01T01:26:26.085Z,79.7347
2023-04-01T01:27:26.818Z,79.8907
2023-04-01T01:28:27.904Z,80.2665
2023-04-01T01:29:28.617Z,80.4838
2023-04-01T01:30:29.549Z,80.1462
2023-04-01T01:31:30.684Z,79.9669
2023-04-01T01:32:31.397Z,80.2413
2023-04-01T01:33:31.782Z,80.1392
2023-04-01T01:34:32.896Z,80.3781
2023-04-01T01:35:57.094Z,80.3406
2023-04-01T01:36:34.227Z,79.6614
2023-04-01T01:37:35.149Z,79.2692
2023-04-01T01:38:35.547Z,79.4029
2023-04-01T01:39:36.668Z,79.5872
2023-04-01T01:40:37.840Z,79.3768
2023-04-01T01:41:37.912Z,79.6501
2023-04-01T01:42:38.013Z,79.7414
2023-04-01T01:43:37.952Z,79.8591
2023-04-01T01:44:38.335Z,79.8480
2023-04-01T01:45:38.208Z,79.6489
2023-04-01T01:46:38.615Z,79.6083
2023-04-01T01:47:39.656Z,79.6586
2023-04-01T01:48:40.067Z,79.4772
2023-04-01T01:49:39.933Z,79.6573
2023-04-01T01:50:40.569Z,79.6388
2023-04-01T01:51:40.852Z,79.6446
2023-04-01T01:52:41.294Z,79.3035
2023-04-01T01:53:41.876Z,78.9721
2023-04-01T01:54:42.059Z,78.5543
2023-04-01T01:55:54.958Z,78.5037
2023-04-01T01:56:55.559Z,78.7993
2023-04-01T01:57:56.492Z,78.8223
2023-04-01T01:58:57.361Z,78.4118
2023-04-01T01:59:58.509Z,78.3440
2023-04-01T02:00:59.395Z,78.0820
2023-04-01T02:02:00.127Z,78.3863
2023-04-01T02:02:59.792Z,78.7207
2023-04-01T02:04:00.639Z,78.3772
2023-04-01T02:05:01.681Z,78.3840
2023-04-01T02:06:02.058Z,78.1737
2023-04-01T02:07:02.881Z,77.9548
2023-04-01T02:08:03.678Z,77.6819
2023-04-01T02:09:04.634Z,78.0051
2023-04-01T02:10:05.742Z,78.0542
2023-04-01T02:11:06.701Z,78.1911
2023-04-01T02:12:07.578Z,78.2422
2023-04-01T02:13:08.350Z,78.0663
2023-04-01T02:14:09.287Z,78.0025
2023-04-01T02:15:10.047Z,77.6248
2023-04-01T02:16:10.839Z,77.7361
2023-04-01T02:17:11.813Z,77.3367
2023-04-01T02:18:13.137Z,77.0371
2023-04-01T02:19:13.917Z,76.7281
2023-04-01T02:20:14.741Z,77.2764
2023-04-01T02:21:15.685Z,77.3968
2023-04-01T02:22:16.515Z,76.8439
2023-04-01T02:23:17.481Z,76.6691
2023-04-01T02:24:18.147Z,76.7870
2023-04-01T02:25:19.149Z,76.7690
2023-04-01T02:26:20.161Z,77.1631
2023-04-01T02:27:20.925Z,76.8659
2023-04-01T02:28:22.068Z,76.9633
2023-04-01T02:29:23.017Z,77.1104
2023-04-01T02:30:23.684Z,76.9736
2023-04-01T02:31:24.627Z,77.0567
2023-04-01T02:32:25.711Z,76.7330
2023-04-01T02:33:26.704Z,76.5396
2023-04-01T02:34:27.649Z,76.6515
2023-04-01T02:35:28.389Z,76.3207
2023-04-01T02:36:29.561Z,76.4538
2023-04-01T02:37:30.851Z,76.0020
2023-04-01T02:38:30.711Z,76.0362
2023-04-01T02:39:31.495Z,76.1945
2023-04-01T02:40:32.433Z,76.1727
2023-04-01T02:41:33.210Z,76.1756
2023-04-01T02:42:34.134Z,75.8748
2023-04-01T02:43:34.929Z,75.9865
2023-04-01T02:44:35.761Z,76.4824
2023-04-01T02:45:35.898Z,76.8881
2023-04-01T02:46:36.816Z,76.9015
2023-04-01T02:47:37.051Z,76.7898
2023-04-01T02:48:37.980Z,77.2748
2023-04-01T02:49:38.915Z,77.3176
2023-04-01T02:50:39.826Z,78.1157
2023-04-01T02:51:40.212Z,78.2830
2023-04-01T02:52:41.009Z,78.2751
2023-04-01T02:53:42.218Z,78.5511
2023-04-01T02:54:43.093Z,78.4350
2023-04-01T02:55:44.139Z,78.1610
2023-04-01T02:56:44.838Z,77.3776
2023-04-01T02:57:44.973Z,77.4006
2023-04-01T02:58:45.894Z,77.8953
2023-04-01T02:59:46.561Z,78.0611
2023-04-01T03:00:47.534Z,78.3152
2023-04-01T03:01:48.388Z,78.4117
2023-04-01T03:02:48.644Z,78.4942
2023-04-01T03:03:48.995Z,78.0169
2023-04-01T03:04:49.672Z,77.5393
2023-04-01T03:05:50.253Z,77.4769
2023-04-01T03:06:51.051Z,77.1866
2023-04-01T03:07:51.889Z,76.9524
2023-04-01T03:08:52.750Z,76.5686
2023-04-01T03:09:53.436Z,76.8275
2023-04-01T03:10:54.302Z,76.6854
2023-04-01T03:11:55.157Z,77.0039
2023-04-01T03:12:56.014Z,76.9373
2023-04-01T03:13:57.213Z,77.0809
2023-04-01T03:14:57.926Z,77.1273
2023-04-01T03:15:59.175Z,77.0401
2023-04-01T03:16:59.329Z,76.8877
2023-04-01T03:18:00.267Z,77.0551
2023-04-01T03:19:01.371Z,77.3759
2023-04-01T03:20:02.381Z,77.3623
2023-04-01T03:21:03.101Z,76.5914
2023-04-01T03:22:04.165Z,76.4696
2023-04-01T03:23:05.309Z,76.6653
2023-04-01T03:24:06.179Z,76.6976
2023-04-01T03:25:07.448Z,76.7837
2023-04-01T03:26:07.896Z,77.0352
2023-04-01T03:27:08.759Z,77.0870
2023-04-01T03:28:09.718Z,76.5921
2023-04-01T03:29:10.518Z,76.7808
2023-04-01T03:30:11.534Z,77.0893
2023-04-01T03:31:11.746Z,77.4110
2023-04-01T03:32:12.666Z,77.3265
2023-04-01T03:33:13.107Z,77.1985
2023-04-01T03:34:13.975Z,77.0869
2023-04-01T03:35:14.908Z,76.9637
2023-04-01T03:36:16.078Z,77.2352
2023-04-01T03:37:17.151Z,77.3095
2023-04-01T03:38:18.085Z,77.1351
2023-04-01T03:39:19.081Z,77.1574
2023-04-01T03:40:19.905Z,77.2947
2023-04-01T03:41:20.876Z,77.1478
2023-04-01T03:42:21.757Z,77.1683
2023-04-01T03:43:23.043Z,77.1915
2023-04-01T03:44:24.103Z,77.2084
2023-04-01T03:45:24.736Z,77.2609
2023-04-01T03:46:25.210Z,77.4546
2023-04-01T03:47:46.300Z,77.0924
2023-04-01T03:49:04.317Z,76.8298
2023-04-01T03:49:47.352Z,76.4980
2023-04-01T03:51:06.614Z,76.4486
2023-04-01T03:51:47.692Z,76.1721
2023-04-01T03:52:48.713Z,76.0801
2023-04-01T03:53:54.900Z,76.2052
2023-04-01T03:54:49.620Z,75.9458
2023-04-01T03:55:50.856Z,75.3983
2023-04-01T03:56:51.592Z,75.6212
2023-04-01T03:57:52.238Z,75.8429
2023-04-01T03:58:52.407Z,75.9182
2023-04-01T03:59:52.898Z,75.7711
2023-04-01T04:00:53.042Z,75.5815
2023-04-01T04:01:53.174Z,75.7155
2023-04-01T04:02:54.010Z,75.5502
2023-04-01T04:03:54.313Z,75.5991
2023-04-01T04:04:54.888Z,75.7294
2023-04-01T04:05:56.534Z,76.2755
2023-04-01T04:06:56.557Z,76.6442
2023-04-01T04:07:57.468Z,77.0861
2023-04-01T04:08:58.360Z,77.4902
2023-04-01T04:09:59.418Z,77.4470
2023-04-01T04:11:00.401Z,76.8294
2023-04-01T04:12:01.420Z,76.3270
2023-04-01T04:14:01.972Z,77.1465
2023-04-01T04:15:02.935Z,76.6128
2023-04-01T04:16:04.074Z,76.3366
2023-04-01T04:17:05.002Z,75.8380
2023-04-01T04:18:06.147Z,75.7603
2023-04-01T04:19:07.146Z,75.2933
2023-04-01T04:20:08.132Z,75.0886
2023-04-01T04:21:09.011Z,75.1512
2023-04-01T04:22:09.833Z,75.2229
2023-04-01T04:23:10.708Z,75.1906
2023-04-01T04:24:11.714Z,74.9896
2023-04-01T04:25:11.734Z,75.4004
2023-04-01T04:26:12.524Z,74.9149
2023-04-01T04:27:13.377Z,74.7962
2023-04-01T04:28:14.098Z,74.3759
2023-04-01T04:29:28.058Z,74.4020
2023-04-01T04:30:31.111Z,74.5206
2023-04-01T04:31:29.686Z,74.6408
2023-04-01T04:32:31.204Z,74.9702
2023-04-01T04:33:53.177Z,74.9649
2023-04-01T04:34:33.260Z,75.0883
2023-04-01T04:35:35.257Z,76.3227
2023-04-01T04:36:35.327Z,78.0154
2023-04-01T04:37:36.710Z,78.9941
2023-04-01T04:38:37.726Z,79.1602
2023-04-01T04:39:38.923Z,78.5965
2023-04-01T04:40:39.941Z,78.8321
2023-04-01T04:41:40.862Z,79.0909
2023-04-01T04:42:41.859Z,79.8726
2023-04-01T04:43:42.951Z,80.0109
2023-04-01T04:44:43.245Z,79.2260
2023-04-01T04:45:43.645Z,78.8005
2023-04-01T04:47:56.026Z,78.6060
2023-04-01T04:48:56.530Z,78.7534
2023-04-01T04:49:57.412Z,78.7810
2023-04-01T04:50:57.517Z,78.8811
2023-04-01T04:51:58.698Z,78.9915
2023-04-01T04:52:59.987Z,79.2002
2023-04-01T04:54:00.423Z,79.4799
2023-04-01T04:55:01.627Z,79.8309
2023-04-01T04:56:02.356Z,79.8717
2023-04-01T04:57:02.995Z,80.1656
2023-04-01T04:58:03.642Z,79.7751
2023-04-01T04:59:05.038Z,79.8465
2023-04-01T05:00:05.773Z,79.8984
2023-04-01T05:01:06.539Z,80.2546
2023-04-01T05:02:08.345Z,80.6530
2023-04-01T05:03:08.153Z,80.8927
2023-04-01T05:04:09.257Z,81.0079
2023-04-01T05:05:09.882Z,81.9189
2023-04-01T05:06:10.092Z,81.8249
2023-04-01T05:07:10.726Z,80.4454
2023-04-01T05:08:12.431Z,80.5328
2023-04-01T05:09:12.631Z,80.8028
2023-04-01T05:10:13.473Z,80.9346
2023-04-01T05:11:15.917Z,81.1587
2023-04-01T05:12:18.029Z,81.3963
2023-04-01T05:13:18.350Z,80.9562
2023-04-01T05:14:18.434Z,80.6806
2023-04-01T05:15:18.826Z,80.7574
2023-04-01T05:16:19.424Z,80.8255
2023-04-01T05:17:20.024Z,81.0101
2023-04-01T05:18:20.868Z,81.2787
2023-04-01T05:19:22.320Z,81.5422
2023-04-01T05:20:22.533Z,82.1647
2023-04-01T05:21:22.748Z,81.7417
2023-04-01T05:22:24.381Z,81.9171
2023-04-01T05:23:25.586Z,82.3449
2023-04-01T05:24:26.013Z,82.4597
2023-04-01T05:25:26.307Z,82.1729
2023-04-01T05:26:26.892Z,82.0592
2023-04-01T05:27:27.363Z,82.1568
2023-04-01T05:28:28.166Z,82.1638
2023-04-01T05:29:28.559Z,82.1716
2023-04-01T05:30:29.220Z,82.2037
2023-04-01T05:33:31.267Z,82.4148
2023-04-01T05:34:32.565Z,81.9087
2023-04-01T05:35:33.295Z,82.4412
2023-04-01T05:36:34.414Z,82.7120
2023-04-01T05:37:34.373Z,83.0044
2023-04-01T05:38:35.319Z,83.5783
2023-04-01T05:39:35.982Z,83.7938
2023-04-01T05:40:35.576Z,83.7525
2023-04-01T05:41:36.085Z,84.1449
2023-04-01T05:42:37.646Z,84.2799
2023-04-01T05:43:37.341Z,84.1208
2023-04-01T05:44:38.120Z,83.3694
2023-04-01T05:45:39.539Z,83.7028
2023-04-01T05:46:39.940Z,83.8963
2023-04-01T05:47:40.318Z,84.1893
2023-04-01T05:48:40.905Z,83.8697
2023-04-01T05:49:41.421Z,83.9106
2023-04-01T05:50:42.504Z,83.9286
2023-04-01T05:51:43.276Z,83.8370
2023-04-01T05:52:43.717Z,83.4482
2023-04-01T05:53:45.041Z,83.4704
2023-04-01T05:54:46.261Z,83.0498
2023-04-01T05:55:47.147Z,82.9804
2023-04-01T05:56:48.839Z,83.4389
2023-04-01T05:57:49.805Z,83.2910
2023-04-01T05:58:49.817Z,83.6015
2023-04-01T05:59:50.066Z,83.2153
2023-04-01T06:01:02.262Z,83.4126
2023-04-01T06:01:52.159Z,83.6915
2023-04-01T06:02:53.224Z,83.6611
2023-04-01T06:03:53.262Z,83.0523
2023-04-01T06:04:53.694Z,82.9896
2023-04-01T06:05:55.420Z,83.2858
2023-04-01T06:06:55.840Z,83.7305
2023-04-01T06:08:06.210Z,83.4688
2023-04-01T06:09:07.277Z,83.4976
2023-04-01T06:10:08.257Z,83.8063
2023-04-01T06:11:08.552Z,83.6236
2023-04-01T06:12:09.844Z,83.5379
2023-04-01T06:13:10.734Z,83.1211
2023-04-01T06:14:11.709Z,83.2742
2023-04-01T06:15:13.001Z,82.9174
2023-04-01T06:16:13.106Z,82.8885
2023-04-01T06:17:13.237Z,82.9323
2023-04-01T06:18:14.200Z,82.4541
2023-04-01T06:19:15.537Z,81.9251
2023-04-01T06:20:16.515Z,82.3317
2023-04-01T06:21:17.412Z,82.1876
2023-04-01T06:22:18.712Z,81.4944
2023-04-01T06:23:19.985Z,81.8124
2023-04-01T06:24:21.090Z,81.9826
2023-04-01T06:25:21.981Z,81.4268
2023-04-01T06:26:22.631Z,81.4880
2023-04-01T06:27:24.071Z,81.7571
2023-04-01T06:28:23.884Z,81.8314
2023-04-01T06:29:25.322Z,81.9689
2023-04-01T06:30:25.314Z,82.0645
2023-04-01T06:31:25.760Z,81.8611
2023-04-01T06:32:45.040Z,81.6109
2023-04-01T06:33:46.059Z,81.5817
2023-04-01T06:34:46.801Z,82.2683
2023-04-01T06:35:48.418Z,82.3021
2023-04-01T06:36:48.438Z,81.5751
2023-04-01T06:37:49.065Z,80.4588
2023-04-01T06:38:50.766Z,80.3408
2023-04-01T06:40:11.844Z,80.6355
2023-04-01T06:41:12.236Z,80.3617
2023-04-01T06:42:12.802Z,80.3654
2023-04-01T06:43:16.667Z,79.4725
2023-04-01T06:44:17.715Z,79.6548
2023-04-01T06:45:18.225Z,79.5058
2023-04-01T06:46:19.283Z,79.3779
2023-04-01T06:47:19.913Z,78.9850
2023-04-01T06:48:21.148Z,79.2066
2023-04-01T06:49:22.438Z,79.4958
2023-04-01T06:50:23.566Z,79.5871
2023-04-01T06:51:24.940Z,79.4975
2023-04-01T06:52:24.841Z,79.0249
2023-04-01T06:53:25.818Z,78.6451
2023-04-01T06:54:26.874Z,78.1270
2023-04-01T06:55:27.938Z,78.3095
2023-04-01T06:56:28.895Z,77.8929
2023-04-01T06:57:29.347Z,77.8184
2023-04-01T06:58:29.268Z,77.3961
2023-04-01T06:59:30.313Z,77.3449
2023-04-01T07:00:31.621Z,77.4861
2023-04-01T07:01:31.709Z,76.5941
2023-04-01T07:02:32.835Z,76.8462
2023-04-01T07:03:34.323Z,76.8775
2023-04-01T07:04:35.432Z,76.9513
2023-04-01T07:05:35.476Z,77.2191
2023-04-01T07:06:36.327Z,77.3078
2023-04-01T07:07:37.401Z,77.3607
2023-04-01T07:08:38.554Z,77.2397
2023-04-01T07:09:39.421Z,77.0521
2023-04-01T07:10:40.481Z,77.1108
2023-04-01T07:11:41.452Z,77.1745
2023-04-01T07:12:42.326Z,77.4885
2023-04-01T07:13:43.389Z,77.1531
2023-04-01T07:14:44.220Z,76.8633
2023-04-01T07:15:44.357Z,76.8396
2023-04-01T07:16:44.473Z,77.2696
2023-04-01T07:17:45.487Z,77.0737
2023-04-01T07:18:45.551Z,77.1429
2023-04-01T07:19:46.604Z,77.6200
2023-04-01T07:20:47.589Z,78.2971
2023-04-01T07:21:48.721Z,79.4753
2023-04-01T07:22:53.686Z,80.1198
2023-04-01T07:23:54.319Z,79.9755
2023-04-01T07:24:54.845Z,80.3214
